sensor_id;sensor_type;location;lat;lon;timestamp;pressure;altitude;pressure_sealevel;temperature;humidity
61963;BME280;47927;42.646;23.096;2023-07-02T00:00:07;91623.22;;;18.46;62.36
61963;BME280;47927;42.646;23.096;2023-07-02T00:02:36;91625.03;;;18.49;61.80
61963;BME280;47927;42.646;23.096;2023-07-02T00:05:02;91621.44;;;18.43;62.09
61963;BME280;47927;42.646;23.096;2023-07-02T00:07:28;91605.28;;;18.28;62.71
61963;BME280;47927;42.646;23.096;2023-07-02T00:09:53;91613.94;;;18.29;63.38
61963;BME280;47927;42.646;23.096;2023-07-02T00:12:19;91617.22;;;18.33;63.39
61963;BME280;47927;42.646;23.096;2023-07-02T00:14:45;91623.56;;;18.48;62.78
61963;BME280;47927;42.646;23.096;2023-07-02T00:17:10;91620.03;;;18.26;63.51
61963;BME280;47927;42.646;23.096;2023-07-02T00:19:38;91619.75;;;18.24;63.81
61963;BME280;47927;42.646;23.096;2023-07-02T00:22:08;91621.44;;;18.30;63.47
61963;BME280;47927;42.646;23.096;2023-07-02T00:24:34;91626.59;;;18.47;63.41
61963;BME280;47927;42.646;23.096;2023-07-02T00:26:59;91634.94;;;18.58;63.12
61963;BME280;47927;42.646;23.096;2023-07-02T00:29:25;91629.38;;;18.68;62.64
61963;BME280;47927;42.646;23.096;2023-07-02T00:31:50;91641.19;;;18.77;62.54
61963;BME280;47927;42.646;23.096;2023-07-02T00:34:17;91652.47;;;18.64;63.38
61963;BME280;47927;42.646;23.096;2023-07-02T00:36:43;91657.53;;;18.04;65.88
61963;BME280;47927;42.646;23.096;2023-07-02T00:39:09;91648.53;;;18.18;65.10
61963;BME280;47927;42.646;23.096;2023-07-02T00:41:37;91653.66;;;18.09;64.82
61963;BME280;47927;42.646;23.096;2023-07-02T00:44:03;91647.56;;;18.12;64.99
61963;BME280;47927;42.646;23.096;2023-07-02T00:46:30;91650.31;;;18.21;64.35
61963;BME280;47927;42.646;23.096;2023-07-02T00:48:56;91647.81;;;18.43;63.58
61963;BME280;47927;42.646;23.096;2023-07-02T00:51:24;91624.63;;;18.51;63.11
61963;BME280;47927;42.646;23.096;2023-07-02T00:53:54;91654.81;;;18.62;63.02
61963;BME280;47927;42.646;23.096;2023-07-02T00:56:20;91658.91;;;18.63;63.11
61963;BME280;47927;42.646;23.096;2023-07-02T00:58:47;91648.34;;;18.63;63.02
61963;BME280;47927;42.646;23.096;2023-07-02T01:01:22;91642.75;;;18.49;63.65
61963;BME280;47927;42.646;23.096;2023-07-02T01:06:23;91653.59;;;18.38;63.52
61963;BME280;47927;42.646;23.096;2023-07-02T01:08:59;91643.59;;;18.33;64.41
61963;BME280;47927;42.646;23.096;2023-07-02T01:11:38;91635.34;;;18.43;64.05
61963;BME280;47927;42.646;23.096;2023-07-02T01:14:08;91637.66;;;18.16;65.20
61963;BME280;47927;42.646;23.096;2023-07-02T01:16:37;91629.34;;;18.30;64.59
61963;BME280;47927;42.646;23.096;2023-07-02T01:19:21;91628.38;;;18.37;64.34
61963;BME280;47927;42.646;23.096;2023-07-02T01:21:49;91626.47;;;18.25;65.05
61963;BME280;47927;42.646;23.096;2023-07-02T01:24:16;91623.34;;;18.30;65.30
61963;BME280;47927;42.646;23.096;2023-07-02T01:26:42;91614.25;;;18.43;65.04
61963;BME280;47927;42.646;23.096;2023-07-02T01:29:18;91612.16;;;18.38;65.99
61963;BME280;47927;42.646;23.096;2023-07-02T01:31:44;91606.34;;;18.31;66.08
61963;BME280;47927;42.646;23.096;2023-07-02T01:34:10;91629.59;;;18.74;65.05
61963;BME280;47927;42.646;23.096;2023-07-02T01:36:36;91625.78;;;18.88;64.41
61963;BME280;47927;42.646;23.096;2023-07-02T01:39:03;91628.66;;;18.81;64.37
61963;BME280;47927;42.646;23.096;2023-07-02T01:41:28;91624.81;;;18.95;64.16
61963;BME280;47927;42.646;23.096;2023-07-02T01:43:54;91623.78;;;18.92;64.12
61963;BME280;47927;42.646;23.096;2023-07-02T01:46:20;91611.63;;;18.69;64.76
61963;BME280;47927;42.646;23.096;2023-07-02T01:48:45;91603.41;;;18.54;65.64
61963;BME280;47927;42.646;23.096;2023-07-02T01:51:11;91603.41;;;18.80;64.67
61963;BME280;47927;42.646;23.096;2023-07-02T01:53:36;91604.56;;;18.79;64.66
61963;BME280;47927;42.646;23.096;2023-07-02T01:56:02;91612.28;;;18.86;64.36
61963;BME280;47927;42.646;23.096;2023-07-02T01:58:28;91605.59;;;18.94;64.20
61963;BME280;47927;42.646;23.096;2023-07-02T02:00:53;91607.72;;;18.99;63.86
61963;BME280;47927;42.646;23.096;2023-07-02T02:03:19;91602.13;;;19.10;63.61
61963;BME280;47927;42.646;23.096;2023-07-02T02:05:45;91610.94;;;19.29;63.21
61963;BME280;47927;42.646;23.096;2023-07-02T02:08:10;91596.75;;;19.35;62.95
61963;BME280;47927;42.646;23.096;2023-07-02T02:10:37;91589.56;;;19.36;62.69
61963;BME280;47927;42.646;23.096;2023-07-02T02:13:03;91588.00;;;19.26;63.05
61963;BME280;47927;42.646;23.096;2023-07-02T02:15:28;91582.88;;;19.09;63.48
61963;BME280;47927;42.646;23.096;2023-07-02T02:17:54;91571.91;;;19.11;63.68
61963;BME280;47927;42.646;23.096;2023-07-02T02:20:19;91574.22;;;19.09;63.61
61963;BME280;47927;42.646;23.096;2023-07-02T02:22:45;91570.16;;;18.95;63.84
61963;BME280;47927;42.646;23.096;2023-07-02T02:25:10;91563.06;;;18.92;64.32
61963;BME280;47927;42.646;23.096;2023-07-02T02:27:36;91570.25;;;18.92;63.93
61963;BME280;47927;42.646;23.096;2023-07-02T02:30:02;91566.75;;;19.07;63.52
61963;BME280;47927;42.646;23.096;2023-07-02T02:32:30;91573.47;;;19.08;63.08
61963;BME280;47927;42.646;23.096;2023-07-02T02:34:56;91571.84;;;18.51;64.26
61963;BME280;47927;42.646;23.096;2023-07-02T02:37:21;91576.28;;;18.54;64.34
61963;BME280;47927;42.646;23.096;2023-07-02T02:39:49;91574.16;;;17.97;65.66
61963;BME280;47927;42.646;23.096;2023-07-02T02:42:15;91577.84;;;18.13;65.09
61963;BME280;47927;42.646;23.096;2023-07-02T02:44:41;91562.47;;;18.62;63.27
61963;BME280;47927;42.646;23.096;2023-07-02T02:47:07;91575.09;;;18.93;63.02
61963;BME280;47927;42.646;23.096;2023-07-02T02:49:32;91571.56;;;19.09;62.13
61963;BME280;47927;42.646;23.096;2023-07-02T02:51:58;91580.56;;;19.11;62.26
61963;BME280;47927;42.646;23.096;2023-07-02T02:54:23;91569.13;;;18.41;64.10
61963;BME280;47927;42.646;23.096;2023-07-02T02:56:49;91563.72;;;17.94;65.38
61963;BME280;47927;42.646;23.096;2023-07-02T02:59:14;91580.00;;;17.47;67.53
61963;BME280;47927;42.646;23.096;2023-07-02T03:01:40;91577.84;;;17.42;68.15
61963;BME280;47927;42.646;23.096;2023-07-02T03:04:05;91583.63;;;17.66;67.33
61963;BME280;47927;42.646;23.096;2023-07-02T03:06:33;91591.06;;;17.54;67.91
61963;BME280;47927;42.646;23.096;2023-07-02T03:08:59;91589.47;;;17.73;67.48
61963;BME280;47927;42.646;23.096;2023-07-02T03:11:24;91594.53;;;18.48;64.90
61963;BME280;47927;42.646;23.096;2023-07-02T03:13:50;91606.25;;;18.60;63.72
61963;BME280;47927;42.646;23.096;2023-07-02T03:16:15;91608.13;;;18.21;64.54
61963;BME280;47927;42.646;23.096;2023-07-02T03:18:41;91609.13;;;17.98;65.30
61963;BME280;47927;42.646;23.096;2023-07-02T03:21:06;91604.88;;;18.42;63.39
61963;BME280;47927;42.646;23.096;2023-07-02T03:23:32;91602.47;;;18.35;63.98
61963;BME280;47927;42.646;23.096;2023-07-02T03:25:57;91602.88;;;18.72;63.42
61963;BME280;47927;42.646;23.096;2023-07-02T03:28:23;91608.25;;;18.94;62.91
61963;BME280;47927;42.646;23.096;2023-07-02T03:30:49;91595.69;;;19.33;61.62
61963;BME280;47927;42.646;23.096;2023-07-02T03:33:14;91583.72;;;19.41;60.80
61963;BME280;47927;42.646;23.096;2023-07-02T03:35:40;91595.97;;;19.48;59.74
61963;BME280;47927;42.646;23.096;2023-07-02T03:38:06;91584.81;;;19.66;60.20
61963;BME280;47927;42.646;23.096;2023-07-02T03:40:31;91583.19;;;19.81;60.21
61963;BME280;47927;42.646;23.096;2023-07-02T03:42:57;91583.34;;;19.87;60.57
61963;BME280;47927;42.646;23.096;2023-07-02T03:45:22;91586.91;;;19.93;60.69
61963;BME280;47927;42.646;23.096;2023-07-02T03:47:48;91589.66;;;19.89;60.83
61963;BME280;47927;42.646;23.096;2023-07-02T03:50:13;91591.94;;;19.78;60.75
61963;BME280;47927;42.646;23.096;2023-07-02T03:52:39;91591.47;;;19.70;60.25
61963;BME280;47927;42.646;23.096;2023-07-02T03:55:05;91590.09;;;19.66;59.53
61963;BME280;47927;42.646;23.096;2023-07-02T03:57:31;91585.31;;;19.73;58.36
61963;BME280;47927;42.646;23.096;2023-07-02T03:59:56;91592.72;;;19.78;59.38
61963;BME280;47927;42.646;23.096;2023-07-02T04:02:22;91593.56;;;19.75;59.11
61963;BME280;47927;42.646;23.096;2023-07-02T04:04:47;91593.00;;;19.80;58.96
61963;BME280;47927;42.646;23.096;2023-07-02T04:07:13;91602.03;;;19.92;58.41
61963;BME280;47927;42.646;23.096;2023-07-02T04:09:38;91599.81;;;19.91;58.52
61963;BME280;47927;42.646;23.096;2023-07-02T04:12:05;91597.19;;;19.91;59.12
61963;BME280;47927;42.646;23.096;2023-07-02T04:14:31;91610.81;;;19.89;59.54
61963;BME280;47927;42.646;23.096;2023-07-02T04:16:56;91607.75;;;19.91;58.65
61963;BME280;47927;42.646;23.096;2023-07-02T04:19:22;91609.91;;;19.83;59.20
61963;BME280;47927;42.646;23.096;2023-07-02T04:21:47;91620.47;;;19.83;59.03
61963;BME280;47927;42.646;23.096;2023-07-02T04:24:13;91623.97;;;19.80;59.27
61963;BME280;47927;42.646;23.096;2023-07-02T04:26:39;91637.50;;;19.82;58.96
61963;BME280;47927;42.646;23.096;2023-07-02T04:29:09;91635.47;;;19.86;58.61
61963;BME280;47927;42.646;23.096;2023-07-02T04:31:34;91642.13;;;19.91;59.24
61963;BME280;47927;42.646;23.096;2023-07-02T04:34:00;91647.22;;;19.85;59.43
61963;BME280;47927;42.646;23.096;2023-07-02T04:36:26;91633.66;;;19.96;59.76
61963;BME280;47927;42.646;23.096;2023-07-02T04:38:51;91629.19;;;19.93;59.38
61963;BME280;47927;42.646;23.096;2023-07-02T04:41:18;91641.75;;;20.01;59.98
61963;BME280;47927;42.646;23.096;2023-07-02T04:43:43;91638.31;;;20.14;60.92
61963;BME280;47927;42.646;23.096;2023-07-02T04:46:11;91627.84;;;20.10;60.65
61963;BME280;47927;42.646;23.096;2023-07-02T04:48:38;91633.25;;;20.29;60.37
61963;BME280;47927;42.646;23.096;2023-07-02T04:51:03;91628.47;;;20.45;59.82
61963;BME280;47927;42.646;23.096;2023-07-02T04:53:29;91629.38;;;20.52;59.17
61963;BME280;47927;42.646;23.096;2023-07-02T04:55:54;91632.09;;;20.61;59.83
61963;BME280;47927;42.646;23.096;2023-07-02T04:58:20;91638.00;;;20.65;59.27
61963;BME280;47927;42.646;23.096;2023-07-02T05:00:45;91650.84;;;20.76;58.83
61963;BME280;47927;42.646;23.096;2023-07-02T05:03:11;91642.22;;;20.53;57.99
61963;BME280;47927;42.646;23.096;2023-07-02T05:05:37;91640.69;;;20.74;58.49
61963;BME280;47927;42.646;23.096;2023-07-02T05:08:02;91645.72;;;20.81;57.70
61963;BME280;47927;42.646;23.096;2023-07-02T05:10:30;91636.22;;;21.11;56.63
61963;BME280;47927;42.646;23.096;2023-07-02T05:12:55;91632.66;;;20.96;56.65
61963;BME280;47927;42.646;23.096;2023-07-02T05:15:21;91641.44;;;21.24;57.32
61963;BME280;47927;42.646;23.096;2023-07-02T05:17:46;91645.84;;;21.27;56.56
61963;BME280;47927;42.646;23.096;2023-07-02T05:20:12;91643.53;;;21.38;57.01
61963;BME280;47927;42.646;23.096;2023-07-02T05:22:37;91644.81;;;21.34;57.74
61963;BME280;47927;42.646;23.096;2023-07-02T05:25:03;91638.69;;;20.97;57.95
61963;BME280;47927;42.646;23.096;2023-07-02T05:27:29;91647.75;;;20.77;58.03
61963;BME280;47927;42.646;23.096;2023-07-02T05:29:54;91649.03;;;20.63;58.92
61963;BME280;47927;42.646;23.096;2023-07-02T05:32:20;91647.22;;;20.91;58.81
61963;BME280;47927;42.646;23.096;2023-07-02T05:34:45;91650.06;;;20.66;59.99
61963;BME280;47927;42.646;23.096;2023-07-02T05:37:11;91659.97;;;21.15;59.69
61963;BME280;47927;42.646;23.096;2023-07-02T05:39:36;91665.91;;;21.47;58.20
61963;BME280;47927;42.646;23.096;2023-07-02T05:42:02;91668.47;;;21.87;57.47
61963;BME280;47927;42.646;23.096;2023-07-02T05:44:27;91676.88;;;22.32;58.25
61963;BME280;47927;42.646;23.096;2023-07-02T05:46:53;91670.56;;;22.71;56.76
61963;BME280;47927;42.646;23.096;2023-07-02T05:49:18;91667.25;;;22.95;55.76
61963;BME280;47927;42.646;23.096;2023-07-02T05:51:44;91669.28;;;23.09;54.28
61963;BME280;47927;42.646;23.096;2023-07-02T05:54:09;91680.53;;;23.28;54.90
61963;BME280;47927;42.646;23.096;2023-07-02T05:56:35;91681.09;;;23.08;52.59
61963;BME280;47927;42.646;23.096;2023-07-02T05:59:00;91673.59;;;22.97;54.74
61963;BME280;47927;42.646;23.096;2023-07-02T06:01:26;91670.00;;;23.10;54.80
61963;BME280;47927;42.646;23.096;2023-07-02T06:03:52;91664.72;;;23.34;55.18
61963;BME280;47927;42.646;23.096;2023-07-02T06:06:17;91663.50;;;23.68;53.26
61963;BME280;47927;42.646;23.096;2023-07-02T06:08:43;91649.91;;;25.09;48.74
61963;BME280;47927;42.646;23.096;2023-07-02T06:11:09;91664.28;;;28.21;43.08
61963;BME280;47927;42.646;23.096;2023-07-02T06:13:35;91671.38;;;29.64;37.55
61963;BME280;47927;42.646;23.096;2023-07-02T06:16:01;91665.81;;;31.28;33.71
61963;BME280;47927;42.646;23.096;2023-07-02T06:18:26;91666.31;;;30.96;33.06
61963;BME280;47927;42.646;23.096;2023-07-02T06:20:52;91673.25;;;29.92;35.09
61963;BME280;47927;42.646;23.096;2023-07-02T06:23:17;91679.66;;;29.78;36.06
61963;BME280;47927;42.646;23.096;2023-07-02T06:25:43;91680.44;;;29.39;36.60
61963;BME280;47927;42.646;23.096;2023-07-02T06:28:09;91671.41;;;28.57;38.23
61963;BME280;47927;42.646;23.096;2023-07-02T06:30:35;91671.22;;;27.90;40.59
61963;BME280;47927;42.646;23.096;2023-07-02T06:33:00;91670.75;;;27.91;39.85
61963;BME280;47927;42.646;23.096;2023-07-02T06:35:26;91670.09;;;27.59;39.21
61963;BME280;47927;42.646;23.096;2023-07-02T06:37:51;91663.25;;;26.52;41.68
61963;BME280;47927;42.646;23.096;2023-07-02T06:40:17;91665.06;;;26.14;41.63
61963;BME280;47927;42.646;23.096;2023-07-02T06:42:42;91659.41;;;26.06;42.36
61963;BME280;47927;42.646;23.096;2023-07-02T06:45:08;91663.75;;;26.82;41.28
61963;BME280;47927;42.646;23.096;2023-07-02T06:47:34;91665.00;;;26.87;41.38
61963;BME280;47927;42.646;23.096;2023-07-02T06:49:59;91655.94;;;27.10;40.58
61963;BME280;47927;42.646;23.096;2023-07-02T06:52:25;91665.63;;;31.50;33.91
61963;BME280;47927;42.646;23.096;2023-07-02T06:54:50;91663.63;;;34.88;29.01
61963;BME280;47927;42.646;23.096;2023-07-02T06:57:16;91680.72;;;36.99;24.68
61963;BME280;47927;42.646;23.096;2023-07-02T06:59:42;91672.38;;;37.89;23.34
61963;BME280;47927;42.646;23.096;2023-07-02T07:02:07;91666.56;;;36.26;25.36
61963;BME280;47927;42.646;23.096;2023-07-02T07:04:33;91666.53;;;35.32;26.56
61963;BME280;47927;42.646;23.096;2023-07-02T07:07:00;91679.53;;;34.10;28.46
61963;BME280;47927;42.646;23.096;2023-07-02T07:09:28;91664.25;;;35.94;25.67
61963;BME280;47927;42.646;23.096;2023-07-02T07:11:54;91669.13;;;37.98;23.73
61963;BME280;47927;42.646;23.096;2023-07-02T07:14:20;91672.38;;;36.89;24.54
61963;BME280;47927;42.646;23.096;2023-07-02T07:16:45;91670.84;;;35.77;25.89
61963;BME280;47927;42.646;23.096;2023-07-02T07:19:11;91669.84;;;36.24;25.36
61963;BME280;47927;42.646;23.096;2023-07-02T07:21:36;91670.50;;;34.89;26.76
61963;BME280;47927;42.646;23.096;2023-07-02T07:24:02;91668.03;;;35.62;26.00
61963;BME280;47927;42.646;23.096;2023-07-02T07:26:28;91674.63;;;35.53;26.49
61963;BME280;47927;42.646;23.096;2023-07-02T07:28:53;91666.94;;;36.82;24.97
61963;BME280;47927;42.646;23.096;2023-07-02T07:31:21;91677.50;;;37.31;24.27
61963;BME280;47927;42.646;23.096;2023-07-02T07:33:46;91669.72;;;35.23;25.76
61963;BME280;47927;42.646;23.096;2023-07-02T07:36:12;91670.38;;;33.01;28.89
61963;BME280;47927;42.646;23.096;2023-07-02T07:38:38;91665.38;;;34.17;29.58
61963;BME280;47927;42.646;23.096;2023-07-02T07:41:03;91675.47;;;34.17;29.17
61963;BME280;47927;42.646;23.096;2023-07-02T07:43:29;91667.47;;;35.56;26.88
61963;BME280;47927;42.646;23.096;2023-07-02T07:45:54;91663.38;;;37.17;25.01
61963;BME280;47927;42.646;23.096;2023-07-02T07:48:20;91667.75;;;38.30;22.24
61963;BME280;47927;42.646;23.096;2023-07-02T07:50:46;91661.03;;;37.37;24.10
61963;BME280;47927;42.646;23.096;2023-07-02T07:53:12;91668.06;;;37.78;25.32
61963;BME280;47927;42.646;23.096;2023-07-02T07:55:37;91667.69;;;36.90;23.48
61963;BME280;47927;42.646;23.096;2023-07-02T07:58:03;91667.25;;;35.33;27.04
61963;BME280;47927;42.646;23.096;2023-07-02T08:00:28;91676.16;;;35.62;26.86
61963;BME280;47927;42.646;23.096;2023-07-02T08:02:54;91678.31;;;35.14;27.41
61963;BME280;47927;42.646;23.096;2023-07-02T08:05:21;91675.41;;;35.12;27.03
61963;BME280;47927;42.646;23.096;2023-07-02T08:07:47;91671.94;;;34.69;27.71
61963;BME280;47927;42.646;23.096;2023-07-02T08:10:13;91667.50;;;34.45;27.97
61963;BME280;47927;42.646;23.096;2023-07-02T08:12:38;91660.88;;;35.02;27.07
61963;BME280;47927;42.646;23.096;2023-07-02T08:15:04;91661.81;;;35.54;27.50
61963;BME280;47927;42.646;23.096;2023-07-02T08:17:30;91660.72;;;35.49;26.93
61963;BME280;47927;42.646;23.096;2023-07-02T08:19:56;91660.78;;;35.57;25.00
61963;BME280;47927;42.646;23.096;2023-07-02T08:22:22;91656.44;;;34.22;27.61
61963;BME280;47927;42.646;23.096;2023-07-02T08:24:48;91662.00;;;35.77;27.28
61963;BME280;47927;42.646;23.096;2023-07-02T08:27:15;91664.88;;;35.50;26.02
61963;BME280;47927;42.646;23.096;2023-07-02T08:29:45;91654.94;;;35.24;26.92
61963;BME280;47927;42.646;23.096;2023-07-02T08:32:11;91662.03;;;36.65;26.95
61963;BME280;47927;42.646;23.096;2023-07-02T08:34:36;91657.22;;;37.40;22.78
61963;BME280;47927;42.646;23.096;2023-07-02T08:37:02;91664.06;;;33.71;26.77
61963;BME280;47927;42.646;23.096;2023-07-02T08:39:28;91666.47;;;34.48;26.24
61963;BME280;47927;42.646;23.096;2023-07-02T08:41:53;91658.72;;;32.93;28.10
61963;BME280;47927;42.646;23.096;2023-07-02T08:44:20;91662.63;;;31.29;30.35
61963;BME280;47927;42.646;23.096;2023-07-02T08:46:49;91646.78;;;30.60;31.04
61963;BME280;47927;42.646;23.096;2023-07-02T08:49:16;91663.81;;;30.68;31.11
61963;BME280;47927;42.646;23.096;2023-07-02T08:51:46;91665.28;;;31.05;29.64
61963;BME280;47927;42.646;23.096;2023-07-02T08:54:12;91649.38;;;32.24;28.82
61963;BME280;47927;42.646;23.096;2023-07-02T08:56:38;91657.16;;;31.65;28.97
61963;BME280;47927;42.646;23.096;2023-07-02T08:59:07;91652.34;;;32.20;27.84
61963;BME280;47927;42.646;23.096;2023-07-02T09:01:32;91652.31;;;32.77;27.57
61963;BME280;47927;42.646;23.096;2023-07-02T09:03:58;91657.09;;;32.33;26.37
61963;BME280;47927;42.646;23.096;2023-07-02T09:06:25;91661.47;;;33.20;28.73
61963;BME280;47927;42.646;23.096;2023-07-02T09:08:51;91660.50;;;33.76;25.83
61963;BME280;47927;42.646;23.096;2023-07-02T09:11:17;91657.81;;;34.50;26.73
61963;BME280;47927;42.646;23.096;2023-07-02T09:13:53;91657.50;;;33.93;25.45
61963;BME280;47927;42.646;23.096;2023-07-02T09:16:28;91659.31;;;34.38;25.31
61963;BME280;47927;42.646;23.096;2023-07-02T09:18:58;91655.53;;;34.07;25.12
61963;BME280;47927;42.646;23.096;2023-07-02T09:24:22;91664.81;;;34.45;25.32
61963;BME280;47927;42.646;23.096;2023-07-02T09:26:53;91666.91;;;34.39;25.10
61963;BME280;47927;42.646;23.096;2023-07-02T09:29:49;91660.63;;;34.44;23.92
61963;BME280;47927;42.646;23.096;2023-07-02T09:32:26;91659.69;;;34.89;23.14
61963;BME280;47927;42.646;23.096;2023-07-02T09:34:54;91657.03;;;34.29;24.93
61963;BME280;47927;42.646;23.096;2023-07-02T09:37:20;91650.75;;;34.13;26.29
61963;BME280;47927;42.646;23.096;2023-07-02T09:39:52;91658.03;;;33.78;27.41
61963;BME280;47927;42.646;23.096;2023-07-02T09:42:20;91649.66;;;34.29;26.55
61963;BME280;47927;42.646;23.096;2023-07-02T09:44:45;91650.09;;;34.33;23.53
61963;BME280;47927;42.646;23.096;2023-07-02T09:47:12;91649.22;;;33.05;25.04
61963;BME280;47927;42.646;23.096;2023-07-02T09:49:41;91647.81;;;33.44;24.48
61963;BME280;47927;42.646;23.096;2023-07-02T09:52:26;91647.09;;;33.97;24.76
61963;BME280;47927;42.646;23.096;2023-07-02T09:54:55;91643.25;;;34.06;24.66
61963;BME280;47927;42.646;23.096;2023-07-02T09:57:21;91642.91;;;34.36;25.23
61963;BME280;47927;42.646;23.096;2023-07-02T09:59:46;91638.53;;;34.67;23.78
61963;BME280;47927;42.646;23.096;2023-07-02T10:02:13;91642.22;;;33.82;25.28
61963;BME280;47927;42.646;23.096;2023-07-02T10:04:43;91637.38;;;32.76;25.40
61963;BME280;47927;42.646;23.096;2023-07-02T10:07:09;91642.09;;;33.48;24.55
61963;BME280;47927;42.646;23.096;2023-07-02T10:09:37;91645.25;;;33.65;25.00
61963;BME280;47927;42.646;23.096;2023-07-02T10:12:26;91625.19;;;32.37;28.04
61963;BME280;47927;42.646;23.096;2023-07-02T10:14:56;91627.16;;;32.37;27.82
61963;BME280;47927;42.646;23.096;2023-07-02T10:17:35;91618.00;;;32.08;27.31
61963;BME280;47927;42.646;23.096;2023-07-02T10:20:05;91623.19;;;31.62;28.70
61963;BME280;47927;42.646;23.096;2023-07-02T10:22:47;91616.22;;;31.91;27.75
61963;BME280;47927;42.646;23.096;2023-07-02T10:25:24;91613.28;;;31.21;28.72
61963;BME280;47927;42.646;23.096;2023-07-02T10:27:50;91624.53;;;31.20;27.77
61963;BME280;47927;42.646;23.096;2023-07-02T10:30:16;91617.22;;;31.69;29.54
61963;BME280;47927;42.646;23.096;2023-07-02T10:32:41;91624.66;;;32.39;26.86
61963;BME280;47927;42.646;23.096;2023-07-02T10:35:14;91631.69;;;32.80;26.28
61963;BME280;47927;42.646;23.096;2023-07-02T10:37:40;91635.63;;;33.11;25.41
61963;BME280;47927;42.646;23.096;2023-07-02T10:40:07;91635.75;;;33.19;25.96
61963;BME280;47927;42.646;23.096;2023-07-02T10:42:51;91631.75;;;32.23;26.52
61963;BME280;47927;42.646;23.096;2023-07-02T10:45:18;91630.50;;;32.43;30.03
61963;BME280;47927;42.646;23.096;2023-07-02T10:47:44;91625.41;;;32.39;29.41
61963;BME280;47927;42.646;23.096;2023-07-02T10:50:17;91617.47;;;32.47;27.09
61963;BME280;47927;42.646;23.096;2023-07-02T10:52:43;91620.56;;;32.70;26.94
61963;BME280;47927;42.646;23.096;2023-07-02T10:55:08;91611.88;;;32.07;28.39
61963;BME280;47927;42.646;23.096;2023-07-02T10:57:35;91618.72;;;32.78;28.06
61963;BME280;47927;42.646;23.096;2023-07-02T11:00:07;91605.50;;;32.42;28.29
61963;BME280;47927;42.646;23.096;2023-07-02T11:02:37;91607.94;;;32.46;28.41
61963;BME280;47927;42.646;23.096;2023-07-02T11:05:04;91615.41;;;32.53;28.59
61963;BME280;47927;42.646;23.096;2023-07-02T11:07:32;91616.53;;;32.77;28.68
61963;BME280;47927;42.646;23.096;2023-07-02T11:09:58;91613.03;;;32.82;27.01
61963;BME280;47927;42.646;23.096;2023-07-02T11:12:30;91612.25;;;33.00;28.32
61963;BME280;47927;42.646;23.096;2023-07-02T11:15:17;91613.03;;;32.82;26.91
61963;BME280;47927;42.646;23.096;2023-07-02T11:17:45;91611.56;;;32.81;26.77
61963;BME280;47927;42.646;23.096;2023-07-02T11:20:12;91607.25;;;32.59;29.10
61963;BME280;47927;42.646;23.096;2023-07-02T11:22:39;91619.44;;;32.28;28.78
61963;BME280;47927;42.646;23.096;2023-07-02T11:25:11;91613.03;;;32.31;30.33
61963;BME280;47927;42.646;23.096;2023-07-02T11:27:37;91609.97;;;32.02;30.11
61963;BME280;47927;42.646;23.096;2023-07-02T11:30:03;91621.41;;;30.91;30.97
61963;BME280;47927;42.646;23.096;2023-07-02T11:32:29;91618.44;;;29.65;34.62
61963;BME280;47927;42.646;23.096;2023-07-02T11:34:54;91626.13;;;29.16;39.04
61963;BME280;47927;42.646;23.096;2023-07-02T11:37:20;91632.69;;;28.47;39.84
61963;BME280;47927;42.646;23.096;2023-07-02T11:39:46;91617.47;;;27.93;41.88
61963;BME280;47927;42.646;23.096;2023-07-02T11:42:11;91624.25;;;27.89;41.97
61963;BME280;47927;42.646;23.096;2023-07-02T11:44:37;91621.41;;;28.09;44.95
61963;BME280;47927;42.646;23.096;2023-07-02T11:47:04;91628.03;;;27.65;44.13
61963;BME280;47927;42.646;23.096;2023-07-02T11:49:30;91621.56;;;27.29;43.50
61963;BME280;47927;42.646;23.096;2023-07-02T11:51:56;91621.06;;;27.31;44.64
61963;BME280;47927;42.646;23.096;2023-07-02T11:54:21;91608.91;;;27.30;46.22
61963;BME280;47927;42.646;23.096;2023-07-02T11:56:47;91610.47;;;27.53;46.40
61963;BME280;47927;42.646;23.096;2023-07-02T11:59:13;91608.59;;;27.70;45.21
61963;BME280;47927;42.646;23.096;2023-07-02T12:01:38;91612.38;;;28.01;44.77
61963;BME280;47927;42.646;23.096;2023-07-02T12:04:04;91607.31;;;28.31;42.26
61963;BME280;47927;42.646;23.096;2023-07-02T12:06:31;91604.94;;;28.50;39.95
61963;BME280;47927;42.646;23.096;2023-07-02T12:08:56;91608.31;;;28.90;39.93
61963;BME280;47927;42.646;23.096;2023-07-02T12:11:22;91606.53;;;29.38;39.84
61963;BME280;47927;42.646;23.096;2023-07-02T12:13:47;91609.53;;;29.92;37.90
61963;BME280;47927;42.646;23.096;2023-07-02T12:16:13;91606.59;;;29.96;34.50
61963;BME280;47927;42.646;23.096;2023-07-02T12:18:38;91595.97;;;30.15;34.23
61963;BME280;47927;42.646;23.096;2023-07-02T12:21:04;91602.78;;;30.22;33.20
61963;BME280;47927;42.646;23.096;2023-07-02T12:23:29;91599.56;;;30.34;34.12
61963;BME280;47927;42.646;23.096;2023-07-02T12:25:55;91613.03;;;30.64;33.31
61963;BME280;47927;42.646;23.096;2023-07-02T12:28:20;91615.91;;;30.36;35.26
61963;BME280;47927;42.646;23.096;2023-07-02T12:30:46;91608.66;;;30.61;33.73
61963;BME280;47927;42.646;23.096;2023-07-02T12:33:11;91621.81;;;30.65;34.11
61963;BME280;47927;42.646;23.096;2023-07-02T12:35:37;91623.09;;;30.58;33.78
61963;BME280;47927;42.646;23.096;2023-07-02T12:38:03;91622.22;;;30.80;34.04
61963;BME280;47927;42.646;23.096;2023-07-02T12:40:29;91620.94;;;30.87;33.35
61963;BME280;47927;42.646;23.096;2023-07-02T12:42:54;91619.97;;;30.49;34.68
61963;BME280;47927;42.646;23.096;2023-07-02T12:45:21;91619.44;;;30.56;34.61
61963;BME280;47927;42.646;23.096;2023-07-02T12:47:47;91612.31;;;29.75;37.35
61963;BME280;47927;42.646;23.096;2023-07-02T12:50:13;91620.31;;;29.87;36.44
61963;BME280;47927;42.646;23.096;2023-07-02T12:52:38;91623.69;;;28.45;39.08